Airport ID:CYTF
Update Time (UTC):29/11/2021 19:52
Wind Speed (Knots):4
Wind Direction (Magnetic):080
Temperature (°C):-4.6
Dew Point (°C):-12.4
Humidity (%):55
Altimeter (inHg):29.95
Density Altitude (Feet):\\\\
Visibility (Miles):6
Clouds (Hundreds of feet):OVC038
Present Weather:
METAR:METAR CYTF 292000Z AUTO 03004KT 360V090 10SM OVC039 M05/M12 A2994

The data displayed is for advisory purposes only and is not to be used for flight planning or operations.

This page is not automatically refreshed. Reload the page to see current data.